^^
Grace C. Lehan Memorial Weather Station Historical Data
Daily Summary for April 2, 2022 Units:  Both    English   Metric
Daily Weekly Monthly Yearly
  High: Low: Average:
Temperature: 70.6 °F /  21.4 °C 53.5 °F /  11.9 °C 61.3 °F /  16.3 °C
Dew Point: 56.2 °F /  13.4 °C 40.4 °F /  4.7 °C 48.9 °F /  9.4 °C
Humidity: 87% 38% 66%
Wind Speed: 5mph /  8km/h - 0.9mph /  1.4km/h
Wind Gust: 14mph /  22.5km/h - -
Wind- - WSW
Pressure: 30.29 in /  1025.6 hPa 30.02 in /  1016.5 hPa -
Precipitation: 0.00 in /  0 mm    
 
 
Tabular Data for April 2, 2022
Time Temperature Dew Point Pressure Wind Wind Speed Wind Gust Humidity Rainfall Rate (Hourly) solar
00:04 60 °F /  15.6 °C 56.1 °F /  13.4 °C 30.02in /  1016.5hPa Calm   1mph /  1.6km/h 87% 0.00in /  0mm 0 W/m2
00:09 60 °F /  15.6 °C 56.1 °F /  13.4 °C 30.02in /  1016.5hPa Calm   1mph /  1.6km/h 87% 0.00in /  0mm 0 W/m2
00:14 60 °F /  15.6 °C 56.1 °F /  13.4 °C 30.02in /  1016.5hPa Calm   1mph /  1.6km/h 87% 0.00in /  0mm 0 W/m2
00:19 60 °F /  15.6 °C 56.1 °F /  13.4 °C 30.02in /  1016.5hPa ENE 0.1mph /  0.2km/h 3mph /  4.8km/h 87% 0.00in /  0mm 0 W/m2
00:24 60.1 °F /  15.6 °C 56.2 °F /  13.4 °C 30.03in /  1016.8hPa Calm   3mph /  4.8km/h 87% 0.00in /  0mm 0 W/m2
00:29 60.1 °F /  15.6 °C 56.1 °F /  13.4 °C 30.03in /  1016.8hPa ENE 0.3mph /  0.5km/h 3mph /  4.8km/h 86.8% 0.00in /  0mm 0 W/m2
00:34 60.1 °F /  15.6 °C 55.9 °F /  13.3 °C 30.03in /  1016.8hPa NNW 0.9mph /  1.4km/h 7mph /  11.3km/h 86% 0.00in /  0mm 0 W/m2
00:39 60.1 °F /  15.6 °C 55.9 °F /  13.3 °C 30.04in /  1017.2hPa NNW 0.1mph /  0.2km/h 7mph /  11.3km/h 86% 0.00in /  0mm 0 W/m2
00:44 60 °F /  15.6 °C 55.8 °F /  13.2 °C 30.03in /  1016.8hPa Calm   7mph /  11.3km/h 86% 0.00in /  0mm 0 W/m2
00:49 60 °F /  15.6 °C 55.8 °F /  13.2 °C 30.04in /  1017.2hPa NNW 0.3mph /  0.5km/h 7mph /  11.3km/h 86% 0.00in /  0mm 0 W/m2
00:54 59.9 °F /  15.5 °C 55.7 °F /  13.2 °C 30.04in /  1017.2hPa WNW 0.2mph /  0.3km/h 7mph /  11.3km/h 86% 0.00in /  0mm 0 W/m2
00:59 59.9 °F /  15.5 °C 55.7 °F /  13.2 °C 30.04in /  1017.2hPa Calm   7mph /  11.3km/h 86% 0.00in /  0mm 0 W/m2
01:04 59.8 °F /  15.4 °C 55.6 °F /  13.1 °C 30.04in /  1017.2hPa WNW 0.8mph /  1.3km/h 9mph /  14.5km/h 86% 0.00in /  0mm 0 W/m2
01:09 59.7 °F /  15.4 °C 55.6 °F /  13.1 °C 30.04in /  1017.2hPa NW 1mph /  1.6km/h 9mph /  14.5km/h 86% 0.00in /  0mm 0 W/m2
01:14 59.7 °F /  15.4 °C 55.5 °F /  13.1 °C 30.04in /  1017.2hPa North 0.3mph /  0.5km/h 9mph /  14.5km/h 86% 0.00in /  0mm 0 W/m2
01:19 59.6 °F /  15.3 °C 55.4 °F /  13 °C 30.04in /  1017.2hPa North 1.5mph /  2.4km/h 9mph /  14.5km/h 86% 0.00in /  0mm 0 W/m2
01:24 59.5 °F /  15.3 °C 55.3 °F /  12.9 °C 30.04in /  1017.2hPa NNW 1.5mph /  2.4km/h 9mph /  14.5km/h 85.9% 0.00in /  0mm 0 W/m2
01:29 59.5 °F /  15.3 °C 55 °F /  12.8 °C 30.04in /  1017.2hPa NNW 0.4mph /  0.6km/h 9mph /  14.5km/h 85% 0.00in /  0mm 0 W/m2
01:34 59.5 °F /  15.3 °C 55 °F /  12.8 °C 30.05in /  1017.5hPa Calm   9mph /  14.5km/h 85% 0.00in /  0mm 0 W/m2
01:39 59.5 °F /  15.3 °C 54.9 °F /  12.7 °C 30.05in /  1017.5hPa Calm     85% 0.00in /  0mm 0 W/m2
01:44 59.3 °F /  15.2 °C 54.8 °F /  12.7 °C 30.05in /  1017.5hPa Calm     85% 0.00in /  0mm 0 W/m2
01:49 59.3 °F /  15.2 °C 54.8 °F /  12.7 °C 30.05in /  1017.5hPa NNW 0.5mph /  0.8km/h 6mph /  9.7km/h 85% 0.00in /  0mm 0 W/m2
01:54 59.1 °F /  15.1 °C 54.6 °F /  12.6 °C 30.05in /  1017.5hPa Calm   6mph /  9.7km/h 85% 0.00in /  0mm 0 W/m2
01:59 59 °F /  15 °C 54.5 °F /  12.5 °C 30.06in /  1017.8hPa Calm   6mph /  9.7km/h 85% 0.00in /  0mm 0 W/m2
02:04 58.8 °F /  14.9 °C 54.3 °F /  12.4 °C 30.06in /  1017.8hPa Calm   6mph /  9.7km/h 85% 0.00in /  0mm 0 W/m2
02:09 58.7 °F /  14.8 °C 54.2 °F /  12.3 °C 30.06in /  1017.8hPa NNW 0.2mph /  0.3km/h 3mph /  4.8km/h 85% 0.00in /  0mm 0 W/m2
02:14 58.5 °F /  14.7 °C 54 °F /  12.2 °C 30.06in /  1017.8hPa NNW 0.2mph /  0.3km/h 3mph /  4.8km/h 85% 0.00in /  0mm 0 W/m2
02:19 58.4 °F /  14.7 °C 53.9 °F /  12.2 °C 30.07in /  1018.2hPa NNW 0.4mph /  0.6km/h 5mph /  8km/h 85% 0.00in /  0mm 0 W/m2
02:24 58.2 °F /  14.6 °C 54 °F /  12.2 °C 30.07in /  1018.2hPa NNW 0.4mph /  0.6km/h 5mph /  8km/h 85.9% 0.00in /  0mm 0 W/m2
02:29 58.1 °F /  14.5 °C 54 °F /  12.2 °C 30.06in /  1017.8hPa NNW 1mph /  1.6km/h 5mph /  8km/h 86% 0.00in /  0mm 0 W/m2
02:34 58 °F /  14.4 °C 53.9 °F /  12.2 °C 30.07in /  1018.2hPa NNW 0.8mph /  1.3km/h 5mph /  8km/h 86% 0.00in /  0mm 0 W/m2
02:39 57.9 °F /  14.4 °C 53.7 °F /  12.1 °C 30.07in /  1018.2hPa North 1.2mph /  1.9km/h 7mph /  11.3km/h 85.9% 0.00in /  0mm 0 W/m2
02:44 57.9 °F /  14.4 °C 53.4 °F /  11.9 °C 30.07in /  1018.2hPa NNW 1.7mph /  2.7km/h 7mph /  11.3km/h 85% 0.00in /  0mm 0 W/m2
02:49 58 °F /  14.4 °C 53.5 °F /  11.9 °C 30.07in /  1018.2hPa NW 0.9mph /  1.4km/h 7mph /  11.3km/h 85% 0.00in /  0mm 0 W/m2
02:54 57.9 °F /  14.4 °C 53.5 °F /  11.9 °C 30.07in /  1018.2hPa NW 1.9mph /  3.1km/h 9mph /  14.5km/h 85% 0.00in /  0mm 0 W/m2
02:59 57.9 °F /  14.4 °C 53.5 °F /  11.9 °C 30.07in /  1018.2hPa NNW 1.8mph /  2.9km/h 9mph /  14.5km/h 85% 0.00in /  0mm 0 W/m2
03:04 57.9 °F /  14.4 °C 53.4 °F /  11.9 °C 30.08in /  1018.5hPa NW 1.5mph /  2.4km/h 9mph /  14.5km/h 85% 0.00in /  0mm 0 W/m2
03:09 57.9 °F /  14.4 °C 53.4 °F /  11.9 °C 30.08in /  1018.5hPa NW 0.4mph /  0.6km/h 7mph /  11.3km/h 85% 0.00in /  0mm 0 W/m2
03:14 57.8 °F /  14.3 °C 53.3 °F /  11.8 °C 30.08in /  1018.5hPa NW 0.5mph /  0.8km/h 7mph /  11.3km/h 85% 0.00in /  0mm 0 W/m2
03:19 57.8 °F /  14.3 °C 53.3 °F /  11.8 °C 30.08in /  1018.5hPa NNW 1.1mph /  1.8km/h 7mph /  11.3km/h 85% 0.00in /  0mm 0 W/m2
03:24 57.7 °F /  14.3 °C 53.2 °F /  11.8 °C 30.09in /  1018.8hPa NW 0.7mph /  1.1km/h 7mph /  11.3km/h 85% 0.00in /  0mm 0 W/m2
03:29 57.7 °F /  14.3 °C 52.9 °F /  11.6 °C 30.09in /  1018.8hPa NW 0.4mph /  0.6km/h 7mph /  11.3km/h 84% 0.00in /  0mm 0 W/m2
03:34 57.6 °F /  14.2 °C 52.8 °F /  11.6 °C 30.09in /  1018.8hPa NW 2.6mph /  4.2km/h 13mph /  20.9km/h 84% 0.00in /  0mm 0 W/m2
03:39 57.7 °F /  14.3 °C 52.9 °F /  11.6 °C 30.10in /  1019.2hPa NNW 2.2mph /  3.5km/h 13mph /  20.9km/h 84% 0.00in /  0mm 0 W/m2
03:44 57.7 °F /  14.3 °C 52.9 °F /  11.6 °C 30.10in /  1019.2hPa NW 2.2mph /  3.5km/h 13mph /  20.9km/h 84% 0.00in /  0mm 0 W/m2
03:49 57.7 °F /  14.3 °C 52.9 °F /  11.6 °C 30.10in /  1019.2hPa NW 2.4mph /  3.9km/h 13mph /  20.9km/h 83.9% 0.00in /  0mm 0 W/m2
03:54 57.7 °F /  14.3 °C 52.6 °F /  11.4 °C 30.10in /  1019.2hPa NNW 1.8mph /  2.9km/h 13mph /  20.9km/h 83% 0.00in /  0mm 0 W/m2
03:59 57.7 °F /  14.3 °C 52.6 °F /  11.4 °C 30.10in /  1019.2hPa NW 2.6mph /  4.2km/h 13mph /  20.9km/h 83% 0.00in /  0mm 0 W/m2
04:04 57.7 °F /  14.3 °C 52.6 °F /  11.4 °C 30.10in /  1019.2hPa NW 5mph /  8km/h 6mph /  9.7km/h 83% 0.00in /  0mm 0 W/m2
04:09 57.7 °F /  14.3 °C 52.6 °F /  11.4 °C 30.10in /  1019.2hPa NW 2.8mph /  4.5km/h 10mph /  16.1km/h 83% 0.00in /  0mm 0 W/m2
04:14 57.8 °F /  14.3 °C 52.5 °F /  11.4 °C 30.10in /  1019.2hPa NW 4.7mph /  7.6km/h 14mph /  22.5km/h 82.4% 0.00in /  0mm 0 W/m2
04:19 57.8 °F /  14.3 °C 52.3 °F /  11.3 °C 30.11in /  1019.5hPa WNW 4.3mph /  6.9km/h 14mph /  22.5km/h 82% 0.00in /  0mm 0 W/m2
04:24 57.8 °F /  14.3 °C 52.3 °F /  11.3 °C 30.11in /  1019.5hPa WNW 4.2mph /  6.8km/h 14mph /  22.5km/h 82% 0.00in /  0mm 0 W/m2
04:29 57.8 °F /  14.3 °C 52.3 °F /  11.3 °C 30.11in /  1019.5hPa WNW 3.6mph /  5.8km/h 14mph /  22.5km/h 82% 0.00in /  0mm 0 W/m2
04:34 57.7 °F /  14.3 °C 52.2 °F /  11.2 °C 30.12in /  1019.9hPa WNW 3.8mph /  6.1km/h 14mph /  22.5km/h 82% 0.00in /  0mm 0 W/m2
04:39 57.6 °F /  14.2 °C 52.1 °F /  11.2 °C 30.12in /  1019.9hPa WNW 2.6mph /  4.2km/h 11mph /  17.7km/h 82% 0.00in /  0mm 0 W/m2
04:44 57.5 °F /  14.2 °C 52.3 °F /  11.3 °C 30.12in /  1019.9hPa NW 3mph /  4.8km/h 13mph /  20.9km/h 82.9% 0.00in /  0mm 0 W/m2
04:49 57.3 °F /  14.1 °C 52.2 °F /  11.2 °C 30.12in /  1019.9hPa NW 4mph /  6.4km/h 13mph /  20.9km/h 83% 0.00in /  0mm 0 W/m2
04:54 57.3 °F /  14.1 °C 52.2 °F /  11.2 °C 30.12in /  1019.9hPa NW 2.6mph /  4.2km/h 13mph /  20.9km/h 83% 0.00in /  0mm 0 W/m2
04:59 57.2 °F /  14 °C 52.1 °F /  11.2 °C 30.12in /  1019.9hPa NW 3.3mph /  5.3km/h 13mph /  20.9km/h 83% 0.00in /  0mm 0 W/m2
05:04 57.1 °F /  13.9 °C 52 °F /  11.1 °C 30.13in /  1020.2hPa NW 1.5mph /  2.4km/h 13mph /  20.9km/h 83% 0.00in /  0mm 0 W/m2
05:09 57 °F /  13.9 °C 51.9 °F /  11.1 °C 30.13in /  1020.2hPa WNW 1mph /  1.6km/h 7mph /  11.3km/h 83% 0.00in /  0mm 0 W/m2
05:14 57 °F /  13.9 °C 51.9 °F /  11.1 °C 30.13in /  1020.2hPa NW 2.7mph /  4.3km/h 11mph /  17.7km/h 83% 0.00in /  0mm 0 W/m2
05:19 56.9 °F /  13.8 °C 51.8 °F /  11 °C 30.13in /  1020.2hPa WNW 2.6mph /  4.2km/h 11mph /  17.7km/h 83% 0.00in /  0mm 0 W/m2
05:24 56.8 °F /  13.8 °C 51.6 °F /  10.9 °C 30.13in /  1020.2hPa NW 1.4mph /  2.3km/h 11mph /  17.7km/h 82.5% 0.00in /  0mm 0 W/m2
05:29 56.7 °F /  13.7 °C 51.3 °F /  10.7 °C 30.14in /  1020.5hPa NW 0.9mph /  1.4km/h 11mph /  17.7km/h 82.1% 0.00in /  0mm 0 W/m2
05:34 56.7 °F /  13.7 °C 51.4 °F /  10.8 °C 30.14in /  1020.5hPa NW 2.1mph /  3.4km/h 11mph /  17.7km/h 82.6% 0.00in /  0mm 0 W/m2
05:39 56.6 °F /  13.7 °C 51.5 °F /  10.8 °C 30.15in /  1020.9hPa NW 1.8mph /  2.9km/h 7mph /  11.3km/h 83% 0.00in /  0mm 0 W/m2
05:44 56.5 °F /  13.6 °C 51.4 °F /  10.8 °C 30.15in /  1020.9hPa NW 0.8mph /  1.3km/h 7mph /  11.3km/h 83% 0.00in /  0mm 0 W/m2
05:49 56.3 °F /  13.5 °C 51.2 °F /  10.7 °C 30.15in /  1020.9hPa NW 0.5mph /  0.8km/h 7mph /  11.3km/h 82.8% 0.00in /  0mm 0 W/m2
05:54 56.2 °F /  13.4 °C 50.8 °F /  10.4 °C 30.15in /  1020.9hPa NW 0.5mph /  0.8km/h 7mph /  11.3km/h 82% 0.00in /  0mm 0 W/m2
05:59 56.1 °F /  13.4 °C 50.7 °F /  10.4 °C 30.16in /  1021.2hPa NW 0.3mph /  0.5km/h 7mph /  11.3km/h 82% 0.00in /  0mm 0 W/m2
06:04 55.9 °F /  13.3 °C 50.5 °F /  10.3 °C 30.16in /  1021.2hPa NW 0.4mph /  0.6km/h 7mph /  11.3km/h 82% 0.00in /  0mm 0 W/m2
06:09 55.8 °F /  13.2 °C 50.4 °F /  10.2 °C 30.16in /  1021.2hPa Calm   4mph /  6.4km/h 82% 0.00in /  0mm 0 W/m2
06:14 55.7 °F /  13.2 °C 50.3 °F /  10.2 °C 30.16in /  1021.2hPa Calm   4mph /  6.4km/h 82% 0.00in /  0mm 0 W/m2
06:19 55.7 °F /  13.2 °C 50.3 °F /  10.2 °C 30.17in /  1021.6hPa Calm   4mph /  6.4km/h 82% 0.00in /  0mm 0 W/m2
06:24 55.5 °F /  13.1 °C 50.1 °F /  10.1 °C 30.17in /  1021.6hPa Calm   4mph /  6.4km/h 82% 0.00in /  0mm 0 W/m2
06:29 55.5 °F /  13.1 °C 50.1 °F /  10.1 °C 30.17in /  1021.6hPa Calm   4mph /  6.4km/h 82% 0.00in /  0mm 0 W/m2
06:34 55.3 °F /  12.9 °C 49.9 °F /  9.9 °C 30.17in /  1021.6hPa Calm   4mph /  6.4km/h 82% 0.00in /  0mm 0 W/m2
06:39 55.2 °F /  12.9 °C 50 °F /  10 °C 30.18in /  1021.9hPa NW 0.1mph /  0.2km/h 2mph /  3.2km/h 82.5% 0.00in /  0mm 0 W/m2
06:44 55 °F /  12.8 °C 50 °F /  10 °C 30.18in /  1021.9hPa Calm   3mph /  4.8km/h 83% 0.00in /  0mm 0 W/m2
06:49 54.8 °F /  12.7 °C 49.8 °F /  9.9 °C 30.18in /  1021.9hPa NW 0.2mph /  0.3km/h 3mph /  4.8km/h 83% 0.00in /  0mm 0 W/m2
06:54 54.6 °F /  12.6 °C 49.8 °F /  9.9 °C 30.18in /  1021.9hPa NW 0.5mph /  0.8km/h 4mph /  6.4km/h 83.7% 0.00in /  0mm 0 W/m2
06:59 54.5 °F /  12.5 °C 49.8 °F /  9.9 °C 30.18in /  1021.9hPa NW 0.9mph /  1.4km/h 5mph /  8km/h 84% 0.00in /  0mm 0 W/m2
07:04 54.4 °F /  12.4 °C 49.7 °F /  9.8 °C 30.18in /  1021.9hPa NNW 0.4mph /  0.6km/h 5mph /  8km/h 84% 0.00in /  0mm 0 W/m2
07:09 54.4 °F /  12.4 °C 49.7 °F /  9.8 °C 30.19in /  1022.2hPa Calm   5mph /  8km/h 84% 0.00in /  0mm 0 W/m2
07:14 54.4 °F /  12.4 °C 49.7 °F /  9.8 °C 30.19in /  1022.2hPa Calm   5mph /  8km/h 84% 0.00in /  0mm 0 W/m2
07:15 54.4 °F /  12.4 °C 49.7 °F /  9.8 °C 30.19in /  1022.2hPa Calm   5mph /  8km/h 84% 0.00in /  0mm 0 W/m2
07:30 54.1 °F /  12.3 °C 49.1 °F /  9.5 °C 30.20in /  1022.6hPa Calm   5mph /  8km/h 83% 0.00in /  0mm 1 W/m2
08:04 54.1 °F /  12.3 °C 49.1 °F /  9.5 °C 30.22in /  1023.2hPa Calm   5mph /  8km/h 83% 0.00in /  0mm 26 W/m2
08:09 54.2 °F /  12.3 °C 49.1 °F /  9.5 °C 30.23in /  1023.6hPa Calm     83% 0.00in /  0mm 53 W/m2
08:14 54.5 °F /  12.5 °C 49.4 °F /  9.7 °C 30.23in /  1023.6hPa Calm     83% 0.00in /  0mm 93 W/m2
08:19 55 °F /  12.8 °C 49.9 °F /  9.9 °C 30.23in /  1023.6hPa Calm     82.7% 0.00in /  0mm 76 W/m2
08:24 55.6 °F /  13.1 °C 50.2 °F /  10.1 °C 30.23in /  1023.6hPa Calm     81.9% 0.00in /  0mm 81 W/m2
08:29 56.3 °F /  13.5 °C 50.4 °F /  10.2 °C 30.24in /  1023.9hPa Calm     80.4% 0.00in /  0mm 141 W/m2
08:34 57.1 °F /  13.9 °C 50.7 °F /  10.4 °C 30.24in /  1023.9hPa Calm     79.1% 0.00in /  0mm 186 W/m2
08:39 58.1 °F /  14.5 °C 51.3 °F /  10.7 °C 30.25in /  1024.3hPa Calm     78.2% 0.00in /  0mm 204 W/m2
08:44 59.3 °F /  15.2 °C 51.7 °F /  10.9 °C 30.25in /  1024.3hPa Calm     75.8% 0.00in /  0mm 218 W/m2
08:49 60.5 °F /  15.8 °C 51.9 °F /  11.1 °C 30.25in /  1024.3hPa NNW 0.6mph /  1km/h 3mph /  4.8km/h 73.3% 0.00in /  0mm 239 W/m2
08:54 61.5 °F /  16.4 °C 51.9 °F /  11.1 °C 30.25in /  1024.3hPa NNW 0.6mph /  1km/h 6mph /  9.7km/h 70.7% 0.00in /  0mm 250 W/m2
08:59 62.5 °F /  16.9 °C 51.7 °F /  10.9 °C 30.25in /  1024.3hPa NNW 1.2mph /  1.9km/h 9mph /  14.5km/h 67.8% 0.00in /  0mm 260 W/m2
09:04 63.3 °F /  17.4 °C 51.7 °F /  10.9 °C 30.26in /  1024.6hPa NW 1.7mph /  2.7km/h 9mph /  14.5km/h 65.8% 0.00in /  0mm 279 W/m2
09:09 63.9 °F /  17.7 °C 51.5 °F /  10.8 °C 30.26in /  1024.6hPa NW 1.2mph /  1.9km/h 7mph /  11.3km/h 63.9% 0.00in /  0mm 290 W/m2
09:14 64.3 °F /  17.9 °C 51.5 °F /  10.8 °C 30.26in /  1024.6hPa NW 0.3mph /  0.5km/h 7mph /  11.3km/h 63% 0.00in /  0mm 302 W/m2
09:19 64.7 °F /  18.2 °C 51.6 °F /  10.9 °C 30.26in /  1024.6hPa NNW 1.3mph /  2.1km/h 7mph /  11.3km/h 62.5% 0.00in /  0mm 318 W/m2
09:24 65.1 °F /  18.4 °C 51.5 °F /  10.8 °C 30.26in /  1024.6hPa NW 1mph /  1.6km/h 9mph /  14.5km/h 61.5% 0.00in /  0mm 330 W/m2
09:29 65.4 °F /  18.6 °C 51.6 °F /  10.9 °C 30.26in /  1024.6hPa NW 1.3mph /  2.1km/h 9mph /  14.5km/h 60.9% 0.00in /  0mm 345 W/m2
09:34 65.8 °F /  18.8 °C 51.6 °F /  10.9 °C 30.27in /  1024.9hPa North 1.7mph /  2.7km/h 9mph /  14.5km/h 60.2% 0.00in /  0mm 359 W/m2
09:39 66.1 °F /  18.9 °C 51.4 °F /  10.8 °C 30.27in /  1024.9hPa NNW 1.9mph /  3.1km/h 10mph /  16.1km/h 59% 0.00in /  0mm 373 W/m2
09:44 66.4 °F /  19.1 °C 51.3 °F /  10.7 °C 30.26in /  1024.6hPa NW 1.2mph /  1.9km/h 10mph /  16.1km/h 58.3% 0.00in /  0mm 381 W/m2
09:49 66.6 °F /  19.2 °C 51.4 °F /  10.8 °C 30.26in /  1024.6hPa NW 2.4mph /  3.9km/h 12mph /  19.3km/h 58% 0.00in /  0mm 392 W/m2
09:54 66.6 °F /  19.2 °C 50.6 °F /  10.3 °C 30.27in /  1024.9hPa NNW 2.5mph /  4km/h 12mph /  19.3km/h 56.4% 0.00in /  0mm 399 W/m2
09:59 66.6 °F /  19.2 °C 50.9 °F /  10.5 °C 30.27in /  1024.9hPa NNW 0.3mph /  0.5km/h 12mph /  19.3km/h 56.8% 0.00in /  0mm 413 W/m2
10:04 66.9 °F /  19.4 °C 51.3 °F /  10.7 °C 30.27in /  1024.9hPa North 1mph /  1.6km/h 12mph /  19.3km/h 57.3% 0.00in /  0mm 429 W/m2
10:09 67.2 °F /  19.6 °C 51.1 °F /  10.6 °C 30.27in /  1024.9hPa NNW 0.7mph /  1.1km/h 7mph /  11.3km/h 56.2% 0.00in /  0mm 439 W/m2
10:14 67.6 °F /  19.8 °C 51.2 °F /  10.7 °C 30.27in /  1024.9hPa NNW 0.3mph /  0.5km/h 7mph /  11.3km/h 55.7% 0.00in /  0mm 448 W/m2
10:18 67.9 °F /  19.9 °C 51.4 °F /  10.8 °C 30.28in /  1025.3hPa NNW 0.7mph /  1.1km/h 7mph /  11.3km/h 55.6% 0.00in /  0mm 385 W/m2
10:30 66.6 °F /  19.2 °C 50 °F /  10 °C 30.27in /  1024.9hPa NNW 1mph /  1.6km/h 7mph /  11.3km/h 55% 0.00in /  0mm 343 W/m2
11:00 67 °F /  19.4 °C 50.3 °F /  10.2 °C 30.27in /  1024.9hPa NW 1mph /  1.6km/h 10mph /  16.1km/h 55% 0.00in /  0mm 486 W/m2
11:30 67.9 °F /  19.9 °C 50.2 °F /  10.1 °C 30.27in /  1024.9hPa East 1mph /  1.6km/h 8mph /  12.9km/h 53% 0.00in /  0mm 539 W/m2
12:09 67.1 °F /  19.5 °C 49.3 °F /  9.6 °C 30.27in /  1024.9hPa ENE 0.7mph /  1.1km/h 4mph /  6.4km/h 52.8% 0.00in /  0mm 186 W/m2
12:14 67.1 °F /  19.5 °C 50.2 °F /  10.1 °C 30.27in /  1024.9hPa ENE 1.1mph /  1.8km/h 6mph /  9.7km/h 54.5% 0.00in /  0mm 278 W/m2
12:19 67.2 °F /  19.6 °C 49.9 °F /  9.9 °C 30.27in /  1024.9hPa ENE 2.2mph /  3.5km/h 7mph /  11.3km/h 53.7% 0.00in /  0mm 185 W/m2
12:24 67.2 °F /  19.6 °C 49.2 °F /  9.6 °C 30.27in /  1024.9hPa ENE 2.3mph /  3.7km/h 7mph /  11.3km/h 52.5% 0.00in /  0mm 104 W/m2
12:29 67 °F /  19.4 °C 49.1 °F /  9.5 °C 30.27in /  1024.9hPa ENE 2.1mph /  3.4km/h 7mph /  11.3km/h 52.5% 0.00in /  0mm 174 W/m2
12:34 66.9 °F /  19.4 °C 49.3 °F /  9.6 °C 30.26in /  1024.6hPa ENE 0.6mph /  1km/h 7mph /  11.3km/h 53.2% 0.00in /  0mm 107 W/m2
12:39 66.8 °F /  19.3 °C 49.1 °F /  9.5 °C 30.26in /  1024.6hPa East 1.8mph /  2.9km/h 7mph /  11.3km/h 53% 0.00in /  0mm 128 W/m2
12:44 66.8 °F /  19.3 °C 48.7 °F /  9.3 °C 30.26in /  1024.6hPa ENE 2.2mph /  3.5km/h 10mph /  16.1km/h 52.2% 0.00in /  0mm 155 W/m2
12:49 67 °F /  19.4 °C 49.2 °F /  9.6 °C 30.26in /  1024.6hPa North 1.9mph /  3.1km/h 10mph /  16.1km/h 52.7% 0.00in /  0mm 104 W/m2
12:54 67.2 °F /  19.6 °C 48.1 °F /  8.9 °C 30.26in /  1024.6hPa ENE 1.6mph /  2.6km/h 10mph /  16.1km/h 50.3% 0.00in /  0mm 216 W/m2
12:59 67.4 °F /  19.7 °C 48.6 °F /  9.2 °C 30.25in /  1024.3hPa ENE 1.6mph /  2.6km/h 10mph /  16.1km/h 50.8% 0.00in /  0mm 508 W/m2
13:04 67.6 °F /  19.8 °C 48.6 °F /  9.2 °C 30.25in /  1024.3hPa East 0.9mph /  1.4km/h 10mph /  16.1km/h 50.6% 0.00in /  0mm 439 W/m2
13:09 67.8 °F /  19.9 °C 48.9 °F /  9.4 °C 30.25in /  1024.3hPa NE 1mph /  1.6km/h 4mph /  6.4km/h 50.8% 0.00in /  0mm 415 W/m2
13:14 68.1 °F /  20.1 °C 49 °F /  9.4 °C 30.25in /  1024.3hPa NE 0.6mph /  1km/h 4mph /  6.4km/h 50.5% 0.00in /  0mm 332 W/m2
13:19 68.5 °F /  20.3 °C 48.4 °F /  9.1 °C 30.25in /  1024.3hPa ENE 1mph /  1.6km/h 6mph /  9.7km/h 48.7% 0.00in /  0mm 225 W/m2
13:24 68.8 °F /  20.4 °C 48.3 °F /  9.1 °C 30.24in /  1023.9hPa NE 2.1mph /  3.4km/h 9mph /  14.5km/h 47.9% 0.00in /  0mm 461 W/m2
13:29 69.2 °F /  20.7 °C 47.2 °F /  8.4 °C 30.24in /  1023.9hPa ENE 2.8mph /  4.5km/h 9mph /  14.5km/h 45.3% 0.00in /  0mm 461 W/m2
13:34 69.1 °F /  20.6 °C 47 °F /  8.3 °C 30.24in /  1023.9hPa NE 0.9mph /  1.4km/h 9mph /  14.5km/h 45.1% 0.00in /  0mm 436 W/m2
13:39 69.1 °F /  20.6 °C 47.5 °F /  8.6 °C 30.24in /  1023.9hPa NW 2mph /  3.2km/h 8mph /  12.9km/h 46.1% 0.00in /  0mm 264 W/m2
13:42 69.1 °F /  20.6 °C 47.3 °F /  8.5 °C 30.24in /  1023.9hPa NNE 1.2mph /  1.9km/h 8mph /  12.9km/h 45.7% 0.00in /  0mm 320 W/m2
13:49 69.4 °F /  20.8 °C 46.9 °F /  8.3 °C 30.24in /  1023.9hPa NE 2.5mph /  4km/h 10mph /  16.1km/h 44.7% 0.00in /  0mm 279 W/m2
13:54 69.4 °F /  20.8 °C 46.2 °F /  7.9 °C 30.24in /  1023.9hPa North 2.7mph /  4.3km/h 10mph /  16.1km/h 43.3% 0.00in /  0mm 123 W/m2
13:59 69.6 °F /  20.9 °C 46.2 °F /  7.9 °C 30.24in /  1023.9hPa NNE 1.2mph /  1.9km/h 10mph /  16.1km/h 43% 0.00in /  0mm 301 W/m2
14:04 69.9 °F /  21.1 °C 45.8 °F /  7.7 °C 30.24in /  1023.9hPa NE 2.5mph /  4km/h 11mph /  17.7km/h 42% 0.00in /  0mm 86 W/m2
14:09 69.9 °F /  21.1 °C 44.9 °F /  7.2 °C 30.24in /  1023.9hPa ENE 1.2mph /  1.9km/h 11mph /  17.7km/h 40.7% 0.00in /  0mm 86 W/m2
14:14 69.8 °F /  21 °C 45 °F /  7.2 °C 30.24in /  1023.9hPa ENE 1.5mph /  2.4km/h 11mph /  17.7km/h 41% 0.00in /  0mm 151 W/m2
14:19 69.7 °F /  20.9 °C 44.9 °F /  7.2 °C 30.23in /  1023.6hPa NE 1.9mph /  3.1km/h 11mph /  17.7km/h 40.9% 0.00in /  0mm 292 W/m2
14:24 69.7 °F /  20.9 °C 45.4 °F /  7.4 °C 30.24in /  1023.9hPa NW 1.7mph /  2.7km/h 11mph /  17.7km/h 41.7% 0.00in /  0mm 329 W/m2
14:30 70.1 °F /  21.2 °C 45.3 °F /  7.4 °C 30.24in /  1023.9hPa NE 2mph /  3.2km/h 11mph /  17.7km/h 41% 0.00in /  0mm 122 W/m2
15:00 70.4 °F /  21.3 °C 45 °F /  7.2 °C 30.23in /  1023.6hPa NW 2mph /  3.2km/h 11mph /  17.7km/h 40% 0.00in /  0mm 81 W/m2
15:30 70.6 °F /  21.4 °C 43.8 °F /  6.6 °C 30.24in /  1023.9hPa NW 1mph /  1.6km/h 11mph /  17.7km/h 38% 0.00in /  0mm 147 W/m2
16:04 69.3 °F /  20.7 °C 43.3 °F /  6.3 °C 30.24in /  1023.9hPa ENE 1.8mph /  2.9km/h 4mph /  6.4km/h 39% 0.00in /  0mm 25 W/m2
16:09 69.2 °F /  20.7 °C 42.9 °F /  6.1 °C 30.25in /  1024.3hPa ENE 0.6mph /  1km/h 4mph /  6.4km/h 38.5% 0.00in /  0mm 25 W/m2
16:14 69.1 °F /  20.6 °C 43.3 °F /  6.3 °C 30.25in /  1024.3hPa ENE 0.4mph /  0.6km/h 4mph /  6.4km/h 39.2% 0.00in /  0mm 23 W/m2
16:19 69 °F /  20.6 °C 43.2 °F /  6.2 °C 30.25in /  1024.3hPa ENE 1.1mph /  1.8km/h 5mph /  8km/h 39.1% 0.00in /  0mm 23 W/m2
16:24 68.9 °F /  20.5 °C 43.4 °F /  6.3 °C 30.25in /  1024.3hPa NE 0.5mph /  0.8km/h 5mph /  8km/h 39.6% 0.00in /  0mm 21 W/m2
16:29 68.8 °F /  20.4 °C 43.5 °F /  6.4 °C 30.25in /  1024.3hPa NE 0.4mph /  0.6km/h 5mph /  8km/h 40% 0.00in /  0mm 21 W/m2
16:34 68.6 °F /  20.3 °C 43.1 °F /  6.2 °C 30.25in /  1024.3hPa NE 0.8mph /  1.3km/h 5mph /  8km/h 39.7% 0.00in /  0mm 21 W/m2
16:39 68.5 °F /  20.3 °C 43 °F /  6.1 °C 30.25in /  1024.3hPa ENE 0.5mph /  0.8km/h 3mph /  4.8km/h 39.6% 0.00in /  0mm 19 W/m2
16:44 68.5 °F /  20.3 °C 42.5 °F /  5.8 °C 30.25in /  1024.3hPa ENE 0.4mph /  0.6km/h 3mph /  4.8km/h 39% 0.00in /  0mm 19 W/m2
16:49 68.3 °F /  20.2 °C 42.6 °F /  5.9 °C 30.25in /  1024.3hPa ENE 0.4mph /  0.6km/h 4mph /  6.4km/h 39.3% 0.00in /  0mm 18 W/m2
16:54 68.2 °F /  20.1 °C 41.9 °F /  5.5 °C 30.25in /  1024.3hPa ENE 0.8mph /  1.3km/h 4mph /  6.4km/h 38.4% 0.00in /  0mm 18 W/m2
16:59 68 °F /  20 °C 42 °F /  5.6 °C 30.25in /  1024.3hPa ENE 0.5mph /  0.8km/h 4mph /  6.4km/h 38.8% 0.00in /  0mm 16 W/m2
17:04 67.9 °F /  19.9 °C 41.6 °F /  5.3 °C 30.25in /  1024.3hPa ENE 0.3mph /  0.5km/h 4mph /  6.4km/h 38.3% 0.00in /  0mm 14 W/m2
17:09 67.7 °F /  19.8 °C 41.5 °F /  5.3 °C 30.26in /  1024.6hPa ENE 0.6mph /  1km/h 3mph /  4.8km/h 38.4% 0.00in /  0mm 14 W/m2
17:14 67.6 °F /  19.8 °C 41.4 °F /  5.2 °C 30.26in /  1024.6hPa ENE 0.1mph /  0.2km/h 3mph /  4.8km/h 38.5% 0.00in /  0mm 12 W/m2
17:19 67.4 °F /  19.7 °C 41 °F /  5 °C 30.26in /  1024.6hPa ENE 0.1mph /  0.2km/h 3mph /  4.8km/h 38.1% 0.00in /  0mm 11 W/m2
17:24 67.2 °F /  19.6 °C 41.2 °F /  5.1 °C 30.26in /  1024.6hPa Calm   3mph /  4.8km/h 38.7% 0.00in /  0mm 9 W/m2
17:29 67 °F /  19.4 °C 41.3 °F /  5.2 °C 30.26in /  1024.6hPa Calm   3mph /  4.8km/h 39% 0.00in /  0mm 9 W/m2
17:34 66.8 °F /  19.3 °C 40.9 °F /  4.9 °C 30.26in /  1024.6hPa Calm   3mph /  4.8km/h 38.8% 0.00in /  0mm 7 W/m2
17:39 66.5 °F /  19.2 °C 40.8 °F /  4.9 °C 30.26in /  1024.6hPa Calm     39% 0.00in /  0mm 0 W/m2
17:44 66.2 °F /  19 °C 40.5 °F /  4.7 °C 30.26in /  1024.6hPa Calm     39% 0.00in /  0mm 0 W/m2
17:49 65.9 °F /  18.8 °C 40.4 °F /  4.7 °C 30.26in /  1024.6hPa Calm     39.3% 0.00in /  0mm 0 W/m2
17:54 65.6 °F /  18.7 °C 41.1 °F /  5.1 °C 30.26in /  1024.6hPa Calm     40.7% 0.00in /  0mm 0 W/m2
17:59 65.3 °F /  18.5 °C 41 °F /  5 °C 30.26in /  1024.6hPa Calm     41% 0.00in /  0mm 0 W/m2
18:04 65 °F /  18.3 °C 40.7 °F /  4.8 °C 30.26in /  1024.6hPa Calm     41% 0.00in /  0mm 0 W/m2
18:09 64.7 °F /  18.2 °C 40.8 °F /  4.9 °C 30.26in /  1024.6hPa Calm     41.6% 0.00in /  0mm 0 W/m2
18:14 64.3 °F /  17.9 °C 41.3 °F /  5.2 °C 30.26in /  1024.6hPa Calm     42.9% 0.00in /  0mm 0 W/m2
18:19 64 °F /  17.8 °C 41.1 °F /  5.1 °C 30.26in /  1024.6hPa Calm     43% 0.00in /  0mm 0 W/m2
18:24 63.7 °F /  17.6 °C 42 °F /  5.6 °C 30.26in /  1024.6hPa Calm     45% 0.00in /  0mm 0 W/m2
18:29 63.3 °F /  17.4 °C 42.7 °F /  5.9 °C 30.26in /  1024.6hPa Calm     47% 0.00in /  0mm 0 W/m2
18:34 62.8 °F /  17.1 °C 42.8 °F /  6 °C 30.26in /  1024.6hPa Calm     47.8% 0.00in /  0mm 0 W/m2
18:39 62.4 °F /  16.9 °C 43 °F /  6.1 °C 30.26in /  1024.6hPa Calm     49.1% 0.00in /  0mm 0 W/m2
18:44 61.9 °F /  16.6 °C 43.7 °F /  6.5 °C 30.27in /  1024.9hPa Calm     51% 0.00in /  0mm 0 W/m2
18:49 61.5 °F /  16.4 °C 44.4 °F /  6.9 °C 30.27in /  1024.9hPa Calm     53.3% 0.00in /  0mm 0 W/m2
18:54 60.9 °F /  16.1 °C 44.6 °F /  7 °C 30.27in /  1024.9hPa Calm     55% 0.00in /  0mm 0 W/m2
18:59 60.3 °F /  15.7 °C 44.3 °F /  6.8 °C 30.27in /  1024.9hPa Calm     55.6% 0.00in /  0mm 0 W/m2
19:04 59.7 °F /  15.4 °C 43.5 °F /  6.4 °C 30.27in /  1024.9hPa Calm     55% 0.00in /  0mm 0 W/m2
19:09 59.2 °F /  15.1 °C 43.2 °F /  6.2 °C 30.27in /  1024.9hPa Calm     55.3% 0.00in /  0mm 0 W/m2
19:14 58.8 °F /  14.9 °C 43.3 °F /  6.3 °C 30.28in /  1025.3hPa Calm     56.2% 0.00in /  0mm 0 W/m2
19:19 58.5 °F /  14.7 °C 42.9 °F /  6.1 °C 30.28in /  1025.3hPa Calm     56% 0.00in /  0mm 0 W/m2
19:24 58.2 °F /  14.6 °C 41.8 °F /  5.4 °C 30.28in /  1025.3hPa Calm     54.2% 0.00in /  0mm 0 W/m2
19:29 58.1 °F /  14.5 °C 40.8 °F /  4.9 °C 30.28in /  1025.3hPa Calm     52.5% 0.00in /  0mm 0 W/m2
19:34 58 °F /  14.4 °C 41 °F /  5 °C 30.28in /  1025.3hPa Calm     53% 0.00in /  0mm 0 W/m2
19:39 58 °F /  14.4 °C 41 °F /  5 °C 30.28in /  1025.3hPa Calm     53% 0.00in /  0mm 0 W/m2
19:44 58 °F /  14.4 °C 41 °F /  5 °C 30.28in /  1025.3hPa Calm     53% 0.00in /  0mm 0 W/m2
19:49 57.9 °F /  14.4 °C 41.2 °F /  5.1 °C 30.28in /  1025.3hPa Calm     53.7% 0.00in /  0mm 0 W/m2
19:54 57.8 °F /  14.3 °C 41.4 °F /  5.2 °C 30.28in /  1025.3hPa Calm     54.2% 0.00in /  0mm 0 W/m2
19:59 57.8 °F /  14.3 °C 41.8 °F /  5.4 °C 30.28in /  1025.3hPa Calm     55.1% 0.00in /  0mm 0 W/m2
20:04 57.1 °F /  13.9 °C 44.7 °F /  7.1 °C 30.29in /  1025.6hPa Calm     63.2% 0.00in /  0mm 0 W/m2
20:09 56.5 °F /  13.6 °C 44.7 °F /  7.1 °C 30.29in /  1025.6hPa Calm     64.6% 0.00in /  0mm 0 W/m2
20:14 55.7 °F /  13.2 °C 44.1 °F /  6.7 °C 30.29in /  1025.6hPa Calm     64.8% 0.00in /  0mm 0 W/m2
20:19 55.1 °F /  12.8 °C 43.6 °F /  6.4 °C 30.29in /  1025.6hPa Calm     65.1% 0.00in /  0mm 0 W/m2
20:24 54.7 °F /  12.6 °C 43.6 °F /  6.4 °C 30.29in /  1025.6hPa Calm     66% 0.00in /  0mm 0 W/m2
20:29 54.5 °F /  12.5 °C 43.7 °F /  6.5 °C 30.29in /  1025.6hPa Calm     66.8% 0.00in /  0mm 0 W/m2
20:34 54.4 °F /  12.4 °C 44 °F /  6.7 °C 30.29in /  1025.6hPa Calm     68% 0.00in /  0mm 0 W/m2
20:39 54.2 °F /  12.3 °C 43.9 °F /  6.6 °C 30.29in /  1025.6hPa Calm     68% 0.00in /  0mm 0 W/m2
20:44 54.1 °F /  12.3 °C 43.8 °F /  6.6 °C 30.29in /  1025.6hPa Calm     68% 0.00in /  0mm 0 W/m2
20:49 53.9 °F /  12.2 °C 43.7 °F /  6.5 °C 30.29in /  1025.6hPa Calm     68.3% 0.00in /  0mm 0 W/m2
20:54 53.7 °F /  12.1 °C 43.1 °F /  6.2 °C 30.29in /  1025.6hPa Calm     67.2% 0.00in /  0mm 0 W/m2
20:58 53.5 °F /  11.9 °C 42.6 °F /  5.9 °C 30.29in /  1025.6hPa Calm     66.3% 0.00in /  0mm 0 W/m2
Hartford County Weather
Compliments of Weather Underground - 2 mb